createdAt,value
2022-09-05T00:05:51.053Z,4.63
2022-09-05T00:11:56.648Z,3.92
2022-09-05T00:18:24.745Z,4.13
2022-09-05T00:24:30.375Z,4.32
2022-09-05T00:31:07.140Z,4.03
2022-09-05T00:36:43.175Z,4.28
2022-09-05T00:42:22.931Z,4.45
2022-09-05T00:48:13.828Z,4.57
2022-09-05T00:54:26.360Z,3.97
2022-09-05T01:00:22.807Z,4.78
2022-09-05T01:06:17.748Z,4.63
2022-09-05T01:12:19.716Z,4.53
2022-09-05T01:18:44.136Z,4.10
2022-09-05T01:25:04.901Z,4.32
2022-09-05T01:37:07.304Z,4.65
2022-09-05T01:43:30.131Z,4.85
2022-09-05T01:49:33.797Z,5.00
2022-09-05T01:55:32.285Z,5.10
2022-09-05T02:01:33.197Z,5.05
2022-09-05T02:07:30.627Z,4.65
2022-09-05T02:13:21.096Z,5.45
2022-09-05T02:19:09.041Z,4.85
2022-09-05T02:24:58.539Z,4.57
2022-09-05T02:31:23.860Z,4.63
2022-09-05T02:37:32.377Z,5.40
2022-09-05T02:45:12.203Z,5.28
2022-09-05T02:53:45.576Z,5.05
2022-09-05T02:57:38.339Z,4.80
2022-09-05T03:02:25.282Z,4.90
2022-09-05T03:08:41.047Z,5.28
2022-09-05T03:14:55.326Z,5.13
2022-09-05T03:20:37.857Z,5.70
2022-09-05T03:26:23.298Z,5.72
2022-09-05T03:32:14.544Z,5.20
2022-09-05T03:38:36.237Z,5.30
2022-09-05T03:44:34.782Z,5.10
2022-09-05T03:53:45.344Z,5.18
2022-09-05T03:57:32.444Z,4.75
2022-09-05T04:08:20.389Z,5.07
2022-09-05T04:09:50.557Z,4.75
2022-09-05T04:15:47.728Z,4.80
2022-09-05T04:21:36.855Z,5.25
2022-09-05T04:27:28.546Z,5.40
2022-09-05T04:33:35.903Z,6.47
2022-09-05T04:39:19.666Z,5.00
2022-09-05T04:45:03.566Z,6.05
2022-09-05T04:51:21.385Z,5.93
2022-09-05T04:57:14.745Z,6.55
2022-09-05T05:06:14.076Z,6.90
2022-09-05T05:09:15.627Z,6.03
2022-09-05T05:18:13.272Z,6.70
2022-09-05T05:21:09.226Z,6.25
2022-09-05T05:26:57.573Z,6.85
2022-09-05T05:32:45.854Z,6.93
2022-09-05T05:38:38.454Z,7.18
2022-09-05T05:44:35.107Z,7.47
2022-09-05T05:50:43.201Z,6.70
2022-09-05T05:56:56.725Z,5.00
2022-09-05T06:02:39.202Z,6.15
2022-09-05T06:12:53.616Z,5.80
2022-09-05T06:15:16.374Z,4.95
2022-09-05T06:22:10.818Z,4.82
2022-09-05T06:27:43.849Z,5.13
2022-09-05T06:34:33.073Z,5.80
2022-09-05T06:40:18.146Z,5.95
2022-09-05T06:46:03.579Z,4.30
2022-09-05T06:51:46.408Z,5.22
2022-09-05T06:57:35.337Z,4.25
2022-09-05T07:03:33.292Z,5.10
2022-09-05T07:09:28.785Z,4.60
2022-09-05T07:15:40.428Z,6.13
2022-09-05T07:21:35.142Z,4.50
2022-09-05T07:27:49.880Z,5.45
2022-09-05T07:33:39.137Z,6.28
2022-09-05T07:39:29.194Z,6.53
2022-09-05T07:45:29.697Z,5.47
2022-09-05T07:56:47.726Z,7.97
2022-09-05T07:57:43.612Z,8.07
2022-09-05T08:03:31.197Z,6.65
2022-09-05T08:10:08.648Z,6.80
2022-09-05T08:15:27.997Z,7.30
2022-09-05T08:21:42.365Z,6.43
2022-09-05T08:27:26.126Z,7.03
2022-09-05T08:33:11.958Z,7.72
2022-09-05T08:38:52.035Z,6.90
2022-09-05T08:46:42.800Z,7.18
2022-09-05T08:51:04.032Z,8.15
2022-09-05T08:56:55.374Z,8.75
2022-09-05T09:02:57.244Z,8.63
2022-09-05T09:09:05.787Z,7.50
2022-09-05T09:15:00.698Z,6.85
2022-09-05T09:20:54.556Z,8.02
2022-09-05T09:26:50.096Z,7.10
2022-09-05T09:32:30.567Z,8.85
2022-09-05T09:38:29.252Z,6.70
2022-09-05T09:44:50.034Z,6.80
2022-09-05T09:50:41.875Z,6.70
2022-09-05T09:56:40.098Z,6.47
2022-09-05T10:06:52.502Z,7.43
2022-09-05T10:10:58.388Z,6.97
2022-09-05T10:15:38.177Z,5.60
2022-09-05T10:28:14.817Z,5.82
2022-09-05T10:35:13.751Z,5.55
2022-09-05T10:40:04.466Z,4.75
2022-09-05T10:46:06.053Z,4.75
2022-09-05T10:51:52.502Z,3.60
2022-09-05T10:57:40.873Z,3.38
2022-09-05T11:03:30.213Z,3.60
2022-09-05T11:14:58.741Z,4.00
2022-09-05T11:20:53.139Z,4.97
2022-09-05T11:26:42.430Z,4.25
2022-09-05T11:39:14.826Z,3.67
2022-09-05T11:39:59.172Z,4.05
2022-09-05T11:45:34.280Z,4.00
2022-09-05T11:51:43.022Z,3.85
2022-09-05T11:57:33.449Z,3.05
2022-09-05T12:03:57.222Z,3.10
2022-09-05T12:09:34.294Z,3.13
2022-09-05T12:15:34.446Z,3.20
2022-09-05T12:21:22.971Z,2.88
2022-09-05T12:27:40.234Z,3.17
2022-09-05T12:36:01.618Z,2.70
2022-09-05T12:40:56.665Z,2.83
2022-09-05T12:45:37.309Z,2.67
2022-09-05T12:51:45.351Z,2.55
2022-09-05T13:02:41.854Z,2.10
2022-09-05T13:03:37.833Z,2.40
2022-09-05T13:09:51.910Z,2.22
2022-09-05T13:15:41.894Z,2.08
2022-09-05T13:21:27.180Z,2.15
2022-09-05T13:27:17.275Z,2.00
2022-09-05T13:38:04.621Z,2.10
2022-09-05T13:39:12.483Z,2.17
2022-09-05T13:44:56.503Z,2.72
2022-09-05T13:50:42.760Z,1.95
2022-09-05T13:56:29.124Z,2.35
2022-09-05T14:02:27.822Z,2.13
2022-09-05T14:08:33.651Z,2.08
2022-09-05T14:21:17.092Z,2.70
2022-09-05T14:27:00.388Z,3.00
2022-09-05T14:37:36.374Z,2.60
2022-09-05T14:38:22.009Z,2.58
2022-09-05T14:44:01.566Z,2.90
2022-09-05T14:49:40.095Z,2.50
2022-09-05T15:02:53.353Z,2.47
2022-09-05T15:06:40.588Z,2.40
2022-09-05T15:12:33.030Z,2.33
2022-09-05T15:18:12.273Z,2.45
2022-09-05T15:23:35.349Z,2.20
2022-09-05T15:29:13.916Z,2.58
2022-09-05T15:34:34.990Z,2.67
2022-09-05T15:40:23.191Z,2.45
2022-09-05T15:45:46.998Z,2.88
2022-09-05T15:51:18.491Z,2.80
2022-09-05T15:56:48.836Z,2.60
2022-09-05T16:02:23.312Z,5.30
2022-09-05T16:10:35.756Z,3.10
2022-09-05T16:13:33.915Z,3.28
2022-09-05T16:23:20.551Z,2.97
2022-09-05T16:25:03.744Z,2.58
2022-09-05T16:30:30.178Z,3.50
2022-09-05T16:36:16.537Z,6.05
2022-09-05T16:41:54.005Z,4.20
2022-09-05T16:47:37.525Z,3.15
2022-09-05T16:53:26.071Z,3.95
2022-09-05T16:58:56.538Z,4.55
2022-09-05T17:04:41.775Z,3.85
2022-09-05T17:10:21.405Z,3.58
2022-09-05T17:15:52.330Z,3.20
2022-09-05T17:21:36.565Z,4.07
2022-09-05T17:29:34.134Z,3.63
2022-09-05T17:32:59.842Z,3.88
2022-09-05T17:38:58.592Z,3.00
2022-09-05T17:44:29.497Z,3.50
2022-09-05T17:50:10.165Z,3.95
2022-09-05T17:55:43.278Z,3.97
2022-09-05T18:01:27.066Z,3.97
2022-09-05T18:06:59.868Z,27.73
2022-09-05T18:13:11.798Z,13.43
2022-09-05T18:19:27.961Z,18.98
2022-09-05T18:24:33.414Z,21.85
2022-09-05T18:30:25.098Z,8.90
2022-09-05T18:35:53.734Z,5.97
2022-09-05T18:41:19.318Z,4.25
2022-09-05T18:47:32.133Z,3.80
2022-09-05T18:53:09.106Z,3.67
2022-09-05T18:58:36.696Z,3.88
2022-09-05T19:04:02.043Z,3.47
2022-09-05T19:09:32.109Z,3.85
2022-09-05T19:15:01.415Z,3.75
2022-09-05T19:21:04.521Z,3.47
2022-09-05T19:26:28.959Z,4.10
2022-09-05T19:37:14.798Z,3.83
2022-09-05T19:37:48.754Z,3.28
2022-09-05T19:47:42.044Z,3.67
2022-09-05T19:49:12.074Z,4.28
2022-09-05T19:54:38.174Z,3.55
2022-09-05T20:00:02.956Z,4.28
2022-09-05T20:05:39.205Z,3.85
2022-09-05T20:11:02.044Z,4.07
2022-09-05T20:16:31.111Z,3.72
2022-09-05T20:21:56.785Z,3.58
2022-09-05T20:27:18.253Z,3.67
2022-09-05T20:32:42.395Z,3.88
2022-09-05T20:43:19.345Z,3.95
2022-09-05T20:44:01.515Z,4.43
2022-09-05T20:54:06.986Z,3.70
2022-09-05T20:55:40.160Z,4.88
2022-09-05T21:01:21.790Z,4.65
2022-09-05T21:06:44.522Z,4.28
2022-09-05T21:12:09.183Z,4.43
2022-09-05T21:17:41.545Z,4.60
2022-09-05T21:23:20.238Z,4.80
2022-09-05T21:29:08.137Z,4.50
2022-09-05T21:34:33.134Z,5.10
2022-09-05T21:40:00.229Z,5.00
2022-09-05T21:47:38.025Z,5.20
2022-09-05T21:51:13.034Z,5.20
2022-09-05T21:59:30.624Z,4.90
2022-09-05T22:02:21.781Z,5.18
2022-09-05T22:07:43.338Z,4.85
2022-09-05T22:13:05.107Z,4.57
2022-09-05T22:18:25.709Z,4.93
2022-09-05T22:23:53.658Z,5.10
2022-09-05T22:29:17.979Z,5.13
2022-09-05T22:34:38.862Z,5.00
2022-09-05T22:39:59.765Z,4.70
2022-09-05T22:45:20.541Z,4.95
2022-09-05T22:50:42.613Z,5.38
2022-09-05T22:56:07.098Z,5.57
2022-09-05T23:01:27.949Z,5.90
2022-09-05T23:06:48.664Z,5.35
2022-09-05T23:12:09.320Z,5.50
2022-09-05T23:17:29.925Z,6.30
2022-09-05T23:22:50.434Z,5.15
2022-09-05T23:28:11.467Z,5.93
2022-09-05T23:33:33.287Z,5.65
2022-09-05T23:38:54.474Z,5.47
2022-09-05T23:44:15.257Z,5.53
2022-09-05T23:49:35.748Z,5.68
2022-09-05T23:54:56.776Z,5.50
